sensor_id;sensor_type;location;lat;lon;timestamp;pressure;altitude;pressure_sealevel;temperature;humidity
10079;BME280;5078;42.544;22.966;2022-12-16T00:00:22;93731.41;;;6.11;100.00
10079;BME280;5078;42.544;22.966;2022-12-16T00:02:49;93745.78;;;6.17;100.00
10079;BME280;5078;42.544;22.966;2022-12-16T00:05:16;93750.00;;;6.10;100.00
10079;BME280;5078;42.544;22.966;2022-12-16T00:07:44;93747.22;;;5.83;100.00
10079;BME280;5078;42.544;22.966;2022-12-16T00:10:11;93748.66;;;5.78;100.00
10079;BME280;5078;42.544;22.966;2022-12-16T00:12:38;93748.47;;;5.89;100.00
10079;BME280;5078;42.544;22.966;2022-12-16T00:15:07;93745.44;;;5.84;100.00
10079;BME280;5078;42.544;22.966;2022-12-16T00:17:33;93738.59;;;5.91;100.00
10079;BME280;5078;42.544;22.966;2022-12-16T00:20:01;93738.53;;;6.01;100.00
10079;BME280;5078;42.544;22.966;2022-12-16T00:22:28;93721.56;;;5.95;100.00
10079;BME280;5078;42.544;22.966;2022-12-16T00:24:55;93736.88;;;5.82;100.00
10079;BME280;5078;42.544;22.966;2022-12-16T00:27:21;93732.38;;;5.92;100.00
10079;BME280;5078;42.544;22.966;2022-12-16T00:29:48;93726.97;;;5.94;100.00
10079;BME280;5078;42.544;22.966;2022-12-16T00:32:16;93729.00;;;6.18;100.00
10079;BME280;5078;42.544;22.966;2022-12-16T00:34:43;93732.84;;;6.05;100.00
10079;BME280;5078;42.544;22.966;2022-12-16T00:37:10;93734.66;;;6.05;100.00
10079;BME280;5078;42.544;22.966;2022-12-16T00:39:37;93728.69;;;6.03;100.00
10079;BME280;5078;42.544;22.966;2022-12-16T00:42:04;93724.47;;;5.92;100.00
10079;BME280;5078;42.544;22.966;2022-12-16T00:44:31;93727.13;;;6.10;100.00
10079;BME280;5078;42.544;22.966;2022-12-16T00:46:57;93726.22;;;6.01;100.00
10079;BME280;5078;42.544;22.966;2022-12-16T00:49:25;93717.91;;;5.78;100.00
10079;BME280;5078;42.544;22.966;2022-12-16T00:51:52;93711.47;;;5.91;100.00
10079;BME280;5078;42.544;22.966;2022-12-16T00:54:19;93707.09;;;5.63;100.00
10079;BME280;5078;42.544;22.966;2022-12-16T00:56:46;93704.03;;;5.68;100.00
10079;BME280;5078;42.544;22.966;2022-12-16T00:59:12;93710.03;;;5.78;100.00
10079;BME280;5078;42.544;22.966;2022-12-16T01:01:39;93717.03;;;5.70;100.00
10079;BME280;5078;42.544;22.966;2022-12-16T01:04:06;93711.31;;;5.74;100.00
10079;BME280;5078;42.544;22.966;2022-12-16T01:06:34;93715.72;;;5.56;100.00
10079;BME280;5078;42.544;22.966;2022-12-16T01:09:00;93713.59;;;5.69;100.00
10079;BME280;5078;42.544;22.966;2022-12-16T01:11:27;93703.13;;;5.77;100.00
10079;BME280;5078;42.544;22.966;2022-12-16T01:13:54;93698.47;;;5.89;100.00
10079;BME280;5078;42.544;22.966;2022-12-16T01:16:21;93700.56;;;5.86;100.00
10079;BME280;5078;42.544;22.966;2022-12-16T01:18:47;93697.66;;;6.07;100.00
10079;BME280;5078;42.544;22.966;2022-12-16T01:21:14;93697.19;;;6.63;100.00
10079;BME280;5078;42.544;22.966;2022-12-16T01:23:42;93700.34;;;7.01;100.00
10079;BME280;5078;42.544;22.966;2022-12-16T01:26:14;93691.91;;;7.32;100.00
10079;BME280;5078;42.544;22.966;2022-12-16T01:28:41;93689.81;;;7.52;100.00
10079;BME280;5078;42.544;22.966;2022-12-16T01:31:08;93696.28;;;7.66;100.00
10079;BME280;5078;42.544;22.966;2022-12-16T01:33:35;93693.34;;;7.85;100.00
10079;BME280;5078;42.544;22.966;2022-12-16T01:36:03;93704.75;;;8.10;100.00
10079;BME280;5078;42.544;22.966;2022-12-16T01:38:30;93708.22;;;8.19;100.00
10079;BME280;5078;42.544;22.966;2022-12-16T01:40:58;93716.47;;;8.32;100.00
10079;BME280;5078;42.544;22.966;2022-12-16T01:43:27;93707.59;;;8.41;100.00
10079;BME280;5078;42.544;22.966;2022-12-16T01:45:57;93696.50;;;8.54;100.00
10079;BME280;5078;42.544;22.966;2022-12-16T01:48:34;93705.22;;;8.63;100.00
10079;BME280;5078;42.544;22.966;2022-12-16T01:51:06;93697.63;;;8.68;100.00
10079;BME280;5078;42.544;22.966;2022-12-16T01:53:35;93703.53;;;8.78;100.00
10079;BME280;5078;42.544;22.966;2022-12-16T01:56:05;93692.66;;;8.81;100.00
10079;BME280;5078;42.544;22.966;2022-12-16T01:58:33;93684.53;;;8.91;100.00
10079;BME280;5078;42.544;22.966;2022-12-16T02:01:04;93678.72;;;8.96;100.00
10079;BME280;5078;42.544;22.966;2022-12-16T02:03:32;93677.53;;;9.06;100.00
10079;BME280;5078;42.544;22.966;2022-12-16T02:06:01;93661.47;;;9.08;100.00
10079;BME280;5078;42.544;22.966;2022-12-16T02:08:28;93658.31;;;9.13;100.00
10079;BME280;5078;42.544;22.966;2022-12-16T02:11:21;93654.56;;;9.07;100.00
10079;BME280;5078;42.544;22.966;2022-12-16T02:14:04;93652.69;;;9.16;100.00
10079;BME280;5078;42.544;22.966;2022-12-16T02:16:38;93636.34;;;9.12;100.00
10079;BME280;5078;42.544;22.966;2022-12-16T02:19:39;93647.50;;;9.31;100.00
10079;BME280;5078;42.544;22.966;2022-12-16T02:22:15;93663.72;;;9.27;100.00
10079;BME280;5078;42.544;22.966;2022-12-16T02:25:08;93668.16;;;9.35;100.00
10079;BME280;5078;42.544;22.966;2022-12-16T02:27:48;93668.63;;;9.39;100.00
10079;BME280;5078;42.544;22.966;2022-12-16T02:30:28;93670.75;;;9.43;100.00
10079;BME280;5078;42.544;22.966;2022-12-16T02:33:09;93675.91;;;9.37;100.00
10079;BME280;5078;42.544;22.966;2022-12-16T02:35:45;93688.09;;;9.46;100.00
10079;BME280;5078;42.544;22.966;2022-12-16T02:38:20;93675.00;;;9.13;100.00
10079;BME280;5078;42.544;22.966;2022-12-16T02:40:54;93658.78;;;9.24;100.00
10079;BME280;5078;42.544;22.966;2022-12-16T02:43:45;93653.13;;;9.27;100.00
10079;BME280;5078;42.544;22.966;2022-12-16T02:46:16;93664.06;;;9.24;100.00
10079;BME280;5078;42.544;22.966;2022-12-16T02:48:43;93674.59;;;9.33;100.00
10079;BME280;5078;42.544;22.966;2022-12-16T02:51:10;93679.91;;;9.33;100.00
10079;BME280;5078;42.544;22.966;2022-12-16T02:53:37;93680.72;;;9.33;100.00
10079;BME280;5078;42.544;22.966;2022-12-16T02:56:14;93681.06;;;9.30;100.00
10079;BME280;5078;42.544;22.966;2022-12-16T02:58:49;93676.28;;;9.34;100.00
10079;BME280;5078;42.544;22.966;2022-12-16T03:01:24;93672.78;;;9.33;100.00
10079;BME280;5078;42.544;22.966;2022-12-16T03:04:01;93664.53;;;9.36;100.00
10079;BME280;5078;42.544;22.966;2022-12-16T03:06:30;93655.88;;;9.42;100.00
10079;BME280;5078;42.544;22.966;2022-12-16T03:09:02;93639.31;;;9.48;100.00
10079;BME280;5078;42.544;22.966;2022-12-16T03:11:32;93634.84;;;9.49;100.00
10079;BME280;5078;42.544;22.966;2022-12-16T03:14:00;93644.91;;;9.54;100.00
10079;BME280;5078;42.544;22.966;2022-12-16T03:16:31;93652.66;;;9.55;100.00
10079;BME280;5078;42.544;22.966;2022-12-16T03:19:00;93643.91;;;9.55;100.00
10079;BME280;5078;42.544;22.966;2022-12-16T03:21:33;93635.31;;;9.53;100.00
10079;BME280;5078;42.544;22.966;2022-12-16T03:24:05;93643.03;;;9.62;100.00
10079;BME280;5078;42.544;22.966;2022-12-16T03:26:38;93639.50;;;9.70;100.00
10079;BME280;5078;42.544;22.966;2022-12-16T03:29:09;93641.31;;;9.69;100.00
10079;BME280;5078;42.544;22.966;2022-12-16T03:31:41;93642.78;;;9.72;100.00
10079;BME280;5078;42.544;22.966;2022-12-16T03:34:14;93636.53;;;9.88;100.00
10079;BME280;5078;42.544;22.966;2022-12-16T03:36:44;93622.19;;;9.82;100.00
10079;BME280;5078;42.544;22.966;2022-12-16T03:39:14;93650.09;;;9.93;100.00
10079;BME280;5078;42.544;22.966;2022-12-16T03:41:42;93661.38;;;10.10;100.00
10079;BME280;5078;42.544;22.966;2022-12-16T03:44:09;93674.22;;;9.98;100.00
10079;BME280;5078;42.544;22.966;2022-12-16T03:46:38;93655.16;;;9.80;100.00
10079;BME280;5078;42.544;22.966;2022-12-16T03:49:05;93646.56;;;9.78;100.00
10079;BME280;5078;42.544;22.966;2022-12-16T03:51:32;93645.88;;;9.84;100.00
10079;BME280;5078;42.544;22.966;2022-12-16T03:53:59;93648.28;;;9.93;100.00
10079;BME280;5078;42.544;22.966;2022-12-16T03:56:26;93652.69;;;10.01;100.00
10079;BME280;5078;42.544;22.966;2022-12-16T03:58:52;93659.25;;;10.05;100.00
10079;BME280;5078;42.544;22.966;2022-12-16T04:01:19;93645.72;;;10.00;100.00
10079;BME280;5078;42.544;22.966;2022-12-16T04:03:48;93662.06;;;9.81;100.00
10079;BME280;5078;42.544;22.966;2022-12-16T04:06:15;93662.59;;;9.53;100.00
10079;BME280;5078;42.544;22.966;2022-12-16T04:08:43;93683.59;;;8.68;100.00
10079;BME280;5078;42.544;22.966;2022-12-16T04:11:10;93681.16;;;8.41;100.00
10079;BME280;5078;42.544;22.966;2022-12-16T04:13:54;93683.44;;;8.20;100.00
10079;BME280;5078;42.544;22.966;2022-12-16T04:16:46;93673.38;;;8.32;100.00
10079;BME280;5078;42.544;22.966;2022-12-16T04:19:34;93664.31;;;8.18;100.00
10079;BME280;5078;42.544;22.966;2022-12-16T04:22:22;93663.00;;;7.89;100.00
10079;BME280;5078;42.544;22.966;2022-12-16T04:25:10;93671.25;;;7.86;100.00
10079;BME280;5078;42.544;22.966;2022-12-16T04:27:37;93668.44;;;7.88;100.00
10079;BME280;5078;42.544;22.966;2022-12-16T04:30:05;93664.16;;;7.95;100.00
10079;BME280;5078;42.544;22.966;2022-12-16T04:32:50;93668.09;;;8.24;100.00
10079;BME280;5078;42.544;22.966;2022-12-16T04:35:36;93676.16;;;8.38;100.00
10079;BME280;5078;42.544;22.966;2022-12-16T04:38:23;93672.22;;;8.26;100.00
10079;BME280;5078;42.544;22.966;2022-12-16T04:41:07;93677.00;;;8.39;100.00
10079;BME280;5078;42.544;22.966;2022-12-16T04:43:51;93670.41;;;8.59;100.00
10079;BME280;5078;42.544;22.966;2022-12-16T04:46:35;93666.03;;;8.83;100.00
10079;BME280;5078;42.544;22.966;2022-12-16T04:49:19;93682.63;;;9.08;100.00
10079;BME280;5078;42.544;22.966;2022-12-16T04:52:05;93686.91;;;9.17;100.00
10079;BME280;5078;42.544;22.966;2022-12-16T04:54:49;93692.50;;;9.22;100.00
10079;BME280;5078;42.544;22.966;2022-12-16T04:57:43;93686.28;;;8.51;100.00
10079;BME280;5078;42.544;22.966;2022-12-16T05:00:27;93684.78;;;8.08;100.00
10079;BME280;5078;42.544;22.966;2022-12-16T05:03:11;93679.31;;;8.01;100.00
10079;BME280;5078;42.544;22.966;2022-12-16T05:05:55;93677.03;;;7.82;100.00
10079;BME280;5078;42.544;22.966;2022-12-16T05:08:40;93677.28;;;7.46;100.00
10079;BME280;5078;42.544;22.966;2022-12-16T05:11:25;93672.06;;;7.87;100.00
10079;BME280;5078;42.544;22.966;2022-12-16T05:14:09;93682.13;;;8.16;100.00
10079;BME280;5078;42.544;22.966;2022-12-16T05:16:53;93687.88;;;8.36;100.00
10079;BME280;5078;42.544;22.966;2022-12-16T05:19:37;93705.56;;;8.76;100.00
10079;BME280;5078;42.544;22.966;2022-12-16T05:22:20;93710.84;;;8.76;100.00
10079;BME280;5078;42.544;22.966;2022-12-16T05:25:07;93710.53;;;8.55;100.00
10079;BME280;5078;42.544;22.966;2022-12-16T05:27:52;93709.19;;;8.26;100.00
10079;BME280;5078;42.544;22.966;2022-12-16T05:30:36;93704.91;;;8.33;100.00
10079;BME280;5078;42.544;22.966;2022-12-16T05:33:20;93693.94;;;8.85;100.00
10079;BME280;5078;42.544;22.966;2022-12-16T05:36:19;93692.16;;;9.34;100.00
10079;BME280;5078;42.544;22.966;2022-12-16T05:39:03;93699.03;;;9.74;100.00
10079;BME280;5078;42.544;22.966;2022-12-16T05:41:54;93693.47;;;9.92;100.00
10079;BME280;5078;42.544;22.966;2022-12-16T05:44:39;93692.94;;;9.97;100.00
10079;BME280;5078;42.544;22.966;2022-12-16T05:47:23;93700.28;;;10.09;100.00
10079;BME280;5078;42.544;22.966;2022-12-16T05:50:08;93706.19;;;10.20;100.00
10079;BME280;5078;42.544;22.966;2022-12-16T05:52:53;93721.50;;;10.32;100.00
10079;BME280;5078;42.544;22.966;2022-12-16T05:55:37;93726.66;;;10.34;100.00
10079;BME280;5078;42.544;22.966;2022-12-16T05:58:23;93737.25;;;10.34;100.00
10079;BME280;5078;42.544;22.966;2022-12-16T06:01:08;93738.34;;;10.40;100.00
10079;BME280;5078;42.544;22.966;2022-12-16T06:03:58;93743.50;;;10.41;100.00
10079;BME280;5078;42.544;22.966;2022-12-16T06:06:42;93739.47;;;10.45;100.00
10079;BME280;5078;42.544;22.966;2022-12-16T06:09:26;93754.09;;;10.41;100.00
10079;BME280;5078;42.544;22.966;2022-12-16T06:12:10;93750.44;;;10.42;100.00
10079;BME280;5078;42.544;22.966;2022-12-16T06:14:56;93748.78;;;10.41;100.00
10079;BME280;5078;42.544;22.966;2022-12-16T06:17:41;93749.78;;;10.40;100.00
10079;BME280;5078;42.544;22.966;2022-12-16T06:20:26;93755.31;;;10.30;100.00
10079;BME280;5078;42.544;22.966;2022-12-16T06:23:10;93756.00;;;10.24;100.00
10079;BME280;5078;42.544;22.966;2022-12-16T06:25:55;93748.88;;;10.25;100.00
10079;BME280;5078;42.544;22.966;2022-12-16T06:28:39;93743.63;;;10.17;100.00
10079;BME280;5078;42.544;22.966;2022-12-16T06:31:24;93746.97;;;10.10;100.00
10079;BME280;5078;42.544;22.966;2022-12-16T06:34:09;93749.22;;;9.99;100.00
10079;BME280;5078;42.544;22.966;2022-12-16T06:37:01;93747.38;;;9.99;100.00
10079;BME280;5078;42.544;22.966;2022-12-16T06:39:45;93754.38;;;9.92;100.00
10079;BME280;5078;42.544;22.966;2022-12-16T06:42:29;93749.84;;;10.01;100.00
10079;BME280;5078;42.544;22.966;2022-12-16T06:45:13;93744.06;;;9.97;100.00
10079;BME280;5078;42.544;22.966;2022-12-16T06:47:59;93729.66;;;10.00;100.00
10079;BME280;5078;42.544;22.966;2022-12-16T06:50:43;93734.81;;;9.93;100.00
10079;BME280;5078;42.544;22.966;2022-12-16T06:53:28;93728.94;;;10.06;100.00
10079;BME280;5078;42.544;22.966;2022-12-16T06:56:12;93718.69;;;10.11;100.00
10079;BME280;5078;42.544;22.966;2022-12-16T06:58:56;93729.56;;;10.16;100.00
10079;BME280;5078;42.544;22.966;2022-12-16T07:01:40;93747.94;;;10.41;100.00
10079;BME280;5078;42.544;22.966;2022-12-16T07:04:25;93736.31;;;10.65;100.00
10079;BME280;5078;42.544;22.966;2022-12-16T07:07:08;93744.47;;;10.78;100.00
10079;BME280;5078;42.544;22.966;2022-12-16T07:09:53;93740.59;;;10.66;100.00
10079;BME280;5078;42.544;22.966;2022-12-16T07:12:37;93739.03;;;10.94;100.00
10079;BME280;5078;42.544;22.966;2022-12-16T07:15:22;93740.97;;;11.15;100.00
10079;BME280;5078;42.544;22.966;2022-12-16T07:18:06;93747.19;;;11.22;100.00
10079;BME280;5078;42.544;22.966;2022-12-16T07:20:51;93758.91;;;11.43;100.00
10079;BME280;5078;42.544;22.966;2022-12-16T07:23:35;93746.75;;;11.63;100.00
10079;BME280;5078;42.544;22.966;2022-12-16T07:26:20;93755.50;;;11.79;100.00
10079;BME280;5078;42.544;22.966;2022-12-16T07:29:04;93752.09;;;11.85;100.00
10079;BME280;5078;42.544;22.966;2022-12-16T07:31:48;93748.91;;;11.90;100.00
10079;BME280;5078;42.544;22.966;2022-12-16T07:34:32;93753.56;;;12.02;100.00
10079;BME280;5078;42.544;22.966;2022-12-16T07:37:26;93742.28;;;12.00;100.00
10079;BME280;5078;42.544;22.966;2022-12-16T07:40:10;93753.91;;;12.14;100.00
10079;BME280;5078;42.544;22.966;2022-12-16T07:42:53;93756.56;;;12.14;100.00
10079;BME280;5078;42.544;22.966;2022-12-16T07:45:37;93771.69;;;12.14;100.00
10079;BME280;5078;42.544;22.966;2022-12-16T07:48:21;93771.19;;;12.25;100.00
10079;BME280;5078;42.544;22.966;2022-12-16T07:51:02;93745.31;;;12.34;100.00
10079;BME280;5078;42.544;22.966;2022-12-16T07:53:48;93750.03;;;12.60;100.00
10079;BME280;5078;42.544;22.966;2022-12-16T07:56:32;93754.97;;;12.84;100.00
10079;BME280;5078;42.544;22.966;2022-12-16T07:59:16;93753.13;;;13.34;100.00
10079;BME280;5078;42.544;22.966;2022-12-16T08:02:01;93747.97;;;13.68;100.00
10079;BME280;5078;42.544;22.966;2022-12-16T08:04:45;93749.94;;;13.94;100.00
10079;BME280;5078;42.544;22.966;2022-12-16T08:07:28;93746.16;;;14.23;100.00
10079;BME280;5078;42.544;22.966;2022-12-16T08:10:14;93754.00;;;14.38;100.00
10079;BME280;5078;42.544;22.966;2022-12-16T08:12:59;93753.78;;;14.46;100.00
10079;BME280;5078;42.544;22.966;2022-12-16T08:15:44;93755.00;;;14.37;100.00
10079;BME280;5078;42.544;22.966;2022-12-16T08:18:28;93753.16;;;14.31;100.00
10079;BME280;5078;42.544;22.966;2022-12-16T08:21:12;93756.91;;;14.56;100.00
10079;BME280;5078;42.544;22.966;2022-12-16T08:23:56;93753.66;;;14.87;100.00
10079;BME280;5078;42.544;22.966;2022-12-16T08:26:42;93750.00;;;14.95;100.00
10079;BME280;5078;42.544;22.966;2022-12-16T08:29:26;93759.84;;;15.08;100.00
10079;BME280;5078;42.544;22.966;2022-12-16T08:32:10;93749.16;;;15.08;100.00
10079;BME280;5078;42.544;22.966;2022-12-16T08:34:54;93751.81;;;15.28;100.00
10079;BME280;5078;42.544;22.966;2022-12-16T08:37:38;93745.41;;;15.42;100.00
10079;BME280;5078;42.544;22.966;2022-12-16T08:40:22;93740.91;;;15.43;100.00
10079;BME280;5078;42.544;22.966;2022-12-16T08:43:07;93728.50;;;15.62;100.00
10079;BME280;5078;42.544;22.966;2022-12-16T08:45:52;93721.94;;;15.64;100.00
10079;BME280;5078;42.544;22.966;2022-12-16T08:48:37;93723.59;;;15.52;100.00
10079;BME280;5078;42.544;22.966;2022-12-16T08:51:21;93723.59;;;15.72;100.00
10079;BME280;5078;42.544;22.966;2022-12-16T08:54:05;93718.47;;;15.70;100.00
10079;BME280;5078;42.544;22.966;2022-12-16T08:56:50;93719.78;;;16.00;100.00
10079;BME280;5078;42.544;22.966;2022-12-16T08:59:35;93710.69;;;16.07;100.00
10079;BME280;5078;42.544;22.966;2022-12-16T09:02:19;93707.72;;;16.22;100.00
10079;BME280;5078;42.544;22.966;2022-12-16T09:05:03;93693.25;;;16.36;100.00
10079;BME280;5078;42.544;22.966;2022-12-16T09:07:47;93691.56;;;16.42;100.00
10079;BME280;5078;42.544;22.966;2022-12-16T09:10:31;93691.81;;;16.34;100.00
10079;BME280;5078;42.544;22.966;2022-12-16T09:13:15;93693.06;;;16.38;100.00
10079;BME280;5078;42.544;22.966;2022-12-16T09:16:01;93681.63;;;16.49;100.00
10079;BME280;5078;42.544;22.966;2022-12-16T09:18:45;93683.22;;;16.57;100.00
10079;BME280;5078;42.544;22.966;2022-12-16T09:21:29;93674.34;;;16.63;100.00
10079;BME280;5078;42.544;22.966;2022-12-16T09:24:14;93676.66;;;16.85;100.00
10079;BME280;5078;42.544;22.966;2022-12-16T09:26:58;93677.50;;;17.10;100.00
10079;BME280;5078;42.544;22.966;2022-12-16T09:45:45;93656.63;;;18.23;94.02
10079;BME280;5078;42.544;22.966;2022-12-16T09:48:38;93659.59;;;18.03;92.60
10079;BME280;5078;42.544;22.966;2022-12-16T09:51:26;93658.78;;;18.02;94.11
10079;BME280;5078;42.544;22.966;2022-12-16T09:54:14;93656.91;;;18.03;92.55
10079;BME280;5078;42.544;22.966;2022-12-16T09:57:01;93649.31;;;18.00;93.75
10079;BME280;5078;42.544;22.966;2022-12-16T09:59:52;93667.06;;;17.82;93.46
10079;BME280;5078;42.544;22.966;2022-12-16T10:02:39;93659.84;;;18.13;93.08
10079;BME280;5078;42.544;22.966;2022-12-16T10:05:32;93660.53;;;18.08;89.46
10079;BME280;5078;42.544;22.966;2022-12-16T10:08:21;93659.66;;;18.26;90.46
10079;BME280;5078;42.544;22.966;2022-12-16T10:11:13;93670.59;;;18.43;87.94
10079;BME280;5078;42.544;22.966;2022-12-16T10:14:01;93652.84;;;18.42;86.96
10079;BME280;5078;42.544;22.966;2022-12-16T10:16:55;93646.28;;;18.38;87.57
10079;BME280;5078;42.544;22.966;2022-12-16T10:19:48;93628.81;;;18.47;86.60
10079;BME280;5078;42.544;22.966;2022-12-16T10:22:43;93624.59;;;18.51;86.68
10079;BME280;5078;42.544;22.966;2022-12-16T10:25:33;93640.16;;;18.61;86.59
10079;BME280;5078;42.544;22.966;2022-12-16T10:28:29;93630.88;;;18.75;83.78
10079;BME280;5078;42.544;22.966;2022-12-16T10:31:24;93623.75;;;18.81;83.97
10079;BME280;5078;42.544;22.966;2022-12-16T10:34:18;93622.59;;;19.01;82.84
10079;BME280;5078;42.544;22.966;2022-12-16T10:37:05;93622.19;;;18.73;80.64
10079;BME280;5078;42.544;22.966;2022-12-16T10:39:52;93618.22;;;18.64;81.11
10079;BME280;5078;42.544;22.966;2022-12-16T10:42:43;93623.34;;;18.66;82.55
10079;BME280;5078;42.544;22.966;2022-12-16T10:45:33;93611.69;;;18.60;80.05
10079;BME280;5078;42.544;22.966;2022-12-16T10:48:22;93626.94;;;18.48;81.24
10079;BME280;5078;42.544;22.966;2022-12-16T10:51:11;93629.19;;;18.63;79.32
10079;BME280;5078;42.544;22.966;2022-12-16T10:54:01;93629.00;;;18.76;79.37
10079;BME280;5078;42.544;22.966;2022-12-16T10:57:09;93620.25;;;19.04;76.14
10079;BME280;5078;42.544;22.966;2022-12-16T11:00:08;93629.63;;;18.90;75.53
10079;BME280;5078;42.544;22.966;2022-12-16T11:02:53;93620.97;;;18.88;75.11
10079;BME280;5078;42.544;22.966;2022-12-16T11:05:39;93622.94;;;18.81;75.44
10079;BME280;5078;42.544;22.966;2022-12-16T11:08:28;93627.84;;;18.95;75.50
10079;BME280;5078;42.544;22.966;2022-12-16T11:11:20;93621.78;;;19.12;73.84
10079;BME280;5078;42.544;22.966;2022-12-16T11:14:15;93618.38;;;19.16;74.07
10079;BME280;5078;42.544;22.966;2022-12-16T11:17:11;93619.09;;;19.24;73.57
10079;BME280;5078;42.544;22.966;2022-12-16T11:20:06;93616.72;;;19.39;71.49
10079;BME280;5078;42.544;22.966;2022-12-16T11:23:07;93605.53;;;19.30;71.90
10079;BME280;5078;42.544;22.966;2022-12-16T11:26:03;93593.69;;;19.43;71.14
10079;BME280;5078;42.544;22.966;2022-12-16T11:32:17;93598.97;;;19.38;72.26
10079;BME280;5078;42.544;22.966;2022-12-16T11:35:12;93611.13;;;19.40;70.49
10079;BME280;5078;42.544;22.966;2022-12-16T11:38:01;93535.91;;;18.70;71.70
10079;BME280;5078;42.544;22.966;2022-12-16T11:41:22;93548.06;;;18.72;73.61
10079;BME280;5078;42.544;22.966;2022-12-16T11:43:57;93511.50;;;18.71;73.33
10079;BME280;5078;42.544;22.966;2022-12-16T11:46:45;93593.97;;;19.18;72.95
10079;BME280;5078;42.544;22.966;2022-12-16T11:49:36;93579.94;;;19.04;73.89
10079;BME280;5078;42.544;22.966;2022-12-16T11:52:29;93561.06;;;18.87;75.55
10079;BME280;5078;42.544;22.966;2022-12-16T11:55:18;93567.59;;;18.80;76.30
10079;BME280;5078;42.544;22.966;2022-12-16T11:58:11;93572.13;;;18.79;76.53
10079;BME280;5078;42.544;22.966;2022-12-16T12:01:02;93557.41;;;18.70;75.87
10079;BME280;5078;42.544;22.966;2022-12-16T12:03:52;93575.72;;;18.73;76.73
10079;BME280;5078;42.544;22.966;2022-12-16T12:06:51;93559.50;;;18.68;75.20
10079;BME280;5078;42.544;22.966;2022-12-16T12:09:46;93551.66;;;18.54;76.45
10079;BME280;5078;42.544;22.966;2022-12-16T12:12:34;93554.59;;;18.53;76.16
10079;BME280;5078;42.544;22.966;2022-12-16T12:15:27;93549.56;;;18.45;76.05
10079;BME280;5078;42.544;22.966;2022-12-16T12:18:33;93545.44;;;18.30;76.02
10079;BME280;5078;42.544;22.966;2022-12-16T12:21:25;93528.41;;;18.37;75.84
10079;BME280;5078;42.544;22.966;2022-12-16T12:24:18;93542.50;;;18.32;75.42
10079;BME280;5078;42.544;22.966;2022-12-16T12:27:09;93553.97;;;18.27;75.39
10079;BME280;5078;42.544;22.966;2022-12-16T12:30:25;93499.66;;;17.90;74.29
10079;BME280;5078;42.544;22.966;2022-12-16T12:33:22;93547.75;;;18.27;74.59
10079;BME280;5078;42.544;22.966;2022-12-16T12:36:13;93541.69;;;18.20;75.12
10079;BME280;5078;42.544;22.966;2022-12-16T12:39:11;93538.44;;;18.29;75.13
10079;BME280;5078;42.544;22.966;2022-12-16T12:42:08;93552.44;;;18.31;73.70
10079;BME280;5078;42.544;22.966;2022-12-16T12:45:08;93551.50;;;18.26;74.59
10079;BME280;5078;42.544;22.966;2022-12-16T12:48:07;93549.63;;;18.26;74.10
10079;BME280;5078;42.544;22.966;2022-12-16T12:50:58;93548.91;;;18.19;74.51
10079;BME280;5078;42.544;22.966;2022-12-16T12:53:49;93557.94;;;18.25;73.67
10079;BME280;5078;42.544;22.966;2022-12-16T12:56:45;93543.00;;;18.17;73.87
10079;BME280;5078;42.544;22.966;2022-12-16T12:59:40;93555.19;;;18.01;75.37
10079;BME280;5078;42.544;22.966;2022-12-16T13:02:34;93555.72;;;17.92;75.86
10079;BME280;5078;42.544;22.966;2022-12-16T13:05:25;93558.19;;;17.93;75.46
10079;BME280;5078;42.544;22.966;2022-12-16T13:08:31;93553.41;;;17.95;75.30
10079;BME280;5078;42.544;22.966;2022-12-16T13:11:15;93539.28;;;17.88;76.12
10079;BME280;5078;42.544;22.966;2022-12-16T13:14:01;93543.97;;;17.93;74.61
10079;BME280;5078;42.544;22.966;2022-12-16T13:16:56;93536.94;;;17.92;74.31
10079;BME280;5078;42.544;22.966;2022-12-16T13:19:42;93547.94;;;17.90;73.88
10079;BME280;5078;42.544;22.966;2022-12-16T13:22:28;93558.19;;;17.93;74.16
10079;BME280;5078;42.544;22.966;2022-12-16T13:25:32;93563.69;;;17.98;73.82
10079;BME280;5078;42.544;22.966;2022-12-16T13:28:23;93553.41;;;17.77;73.48
10079;BME280;5078;42.544;22.966;2022-12-16T13:31:10;93555.47;;;17.81;73.34
10079;BME280;5078;42.544;22.966;2022-12-16T13:34:03;93567.84;;;17.82;72.47
10079;BME280;5078;42.544;22.966;2022-12-16T13:36:53;93571.84;;;17.73;73.73
10079;BME280;5078;42.544;22.966;2022-12-16T13:39:40;93573.59;;;17.79;73.54
10079;BME280;5078;42.544;22.966;2022-12-16T13:42:52;93570.34;;;17.77;73.06
10079;BME280;5078;42.544;22.966;2022-12-16T13:45:39;93572.53;;;17.68;73.32
10079;BME280;5078;42.544;22.966;2022-12-16T13:48:39;93580.06;;;17.60;74.28
10079;BME280;5078;42.544;22.966;2022-12-16T13:51:55;93579.22;;;17.59;74.39
10079;BME280;5078;42.544;22.966;2022-12-16T13:54:46;93588.25;;;17.46;74.24
10079;BME280;5078;42.544;22.966;2022-12-16T13:57:36;93588.09;;;17.41;74.28
10079;BME280;5078;42.544;22.966;2022-12-16T14:00:24;93586.47;;;17.40;75.01
10079;BME280;5078;42.544;22.966;2022-12-16T14:03:12;93587.59;;;17.33;75.72
10079;BME280;5078;42.544;22.966;2022-12-16T14:06:00;93578.50;;;17.34;75.16
10079;BME280;5078;42.544;22.966;2022-12-16T14:08:45;93584.53;;;17.29;74.69
10079;BME280;5078;42.544;22.966;2022-12-16T14:11:37;93588.78;;;17.18;74.51
10079;BME280;5078;42.544;22.966;2022-12-16T14:14:31;93598.25;;;17.21;74.68
10079;BME280;5078;42.544;22.966;2022-12-16T14:17:19;93587.22;;;17.11;75.22
10079;BME280;5078;42.544;22.966;2022-12-16T14:20:12;93605.97;;;17.11;75.80
10079;BME280;5078;42.544;22.966;2022-12-16T14:23:11;93612.81;;;17.07;76.15
10079;BME280;5078;42.544;22.966;2022-12-16T14:26:02;93616.16;;;17.02;76.83
10079;BME280;5078;42.544;22.966;2022-12-16T14:28:47;93606.03;;;16.86;77.16
10079;BME280;5078;42.544;22.966;2022-12-16T14:31:35;93616.50;;;16.87;77.18
10079;BME280;5078;42.544;22.966;2022-12-16T14:34:21;93616.78;;;16.79;77.65
10079;BME280;5078;42.544;22.966;2022-12-16T14:37:11;93613.47;;;16.77;77.72